Time;durP1;ratioP1;P1;durP2;ratioP2;P2;SDS_P1;SDS_P2;PMS_P1;PMS_P2;Temp;Humidity;BMP_temperature;BMP_pressure;BME280_temperature;BME280_humidity;BME280_pressure;Samples;Min_cycle;Max_cycle;Signal;HPM_P1;HPM_P2
2023/11/25 00:00:47;;;;;;;7.00;3.00;;;;;;;1.38;100.00;98410.66;223136;1266;138565;-89
2023/11/25 00:06:49;;;;;;;9.60;3.10;;;;;;;1.35;100.00;98417.58;223170;1265;139199;-89
2023/11/25 00:13:05;;;;;;;9.60;3.60;;;;;;;1.32;100.00;98427.45;223724;1266;138501;-90
2023/11/25 00:18:58;;;;;;;9.30;4.00;;;;;;;1.27;100.00;98438.98;222933;1266;139645;-90
2023/11/25 00:24:58;;;;;;;12.20;4.70;;;;;;;1.29;100.00;98448.45;223586;1268;138474;-90
2023/11/25 00:30:59;;;;;;;16.00;5.50;;;;;;;1.30;100.00;98453.59;223193;1266;139846;-90
2023/11/25 00:36:52;;;;;;;;;;;;;;;;;;;;;
2023/11/25 00:42:54;;;;;;;14.50;5.60;;;;;;;1.31;100.00;98463.20;223773;1266;138667;-91
2023/11/25 00:48:54;;;;;;;14.90;6.40;;;;;;;1.28;100.00;98470.83;223132;1265;139646;-90
2023/11/25 01:00:54;;;;;;;;;;;;;;;;;;;;;
2023/11/25 01:06:56;;;;;;;13.90;6.20;;;;;;;1.25;100.00;98510.61;223250;1266;139464;-90
2023/11/25 01:18:50;;;;;;;;;;;;;;;;;;;;;
2023/11/25 01:24:52;;;;;;;15.70;5.90;;;;;;;1.21;100.00;98519.15;223842;1266;138775;-90
2023/11/25 01:30:53;;;;;;;12.30;5.60;;;;;;;1.20;100.00;98528.42;223271;1266;139269;-89
2023/11/25 01:36:54;;;;;;;10.60;5.20;;;;;;;1.16;100.00;98537.09;223100;1266;139520;-89
2023/11/25 01:42:55;;;;;;;15.50;5.90;;;;;;;1.10;100.00;98540.00;223705;1266;138679;-89
2023/11/25 01:48:56;;;;;;;13.70;5.70;;;;;;;1.01;100.00;98549.14;223254;1266;139539;-89
2023/11/25 01:54:55;;;;;;;12.20;5.60;;;;;;;0.94;100.00;98564.00;223792;1266;139227;-90
2023/11/25 02:00:49;;;;;;;;;;;;;;;;;;;;;
2023/11/25 02:06:42;;;;;;;;;;;;;;;;;;;;;
2023/11/25 02:12:53;;;;;;;12.50;5.50;;;;;;;0.73;100.00;98581.77;223789;1265;138654;-89
2023/11/25 02:18:55;;;;;;;12.70;5.80;;;;;;;0.63;100.00;98590.94;223263;1265;139642;-89
2023/11/25 02:24:56;;;;;;;13.60;5.50;;;;;;;0.56;100.00;98597.38;223683;1266;138769;-89
2023/11/25 02:30:47;;;;;;;12.20;5.20;;;;;;;0.51;100.00;98601.20;223252;1270;139489;-89
2023/11/25 02:36:48;;;;;;;12.50;5.00;;;;;;;0.47;100.00;98607.06;223195;1266;139462;-88
2023/11/25 02:42:50;;;;;;;12.60;5.10;;;;;;;0.42;100.00;98612.30;223735;1266;138657;-87
2023/11/25 02:48:50;;;;;;;13.30;4.50;;;;;;;0.38;100.00;98619.94;223255;1266;139668;-88
2023/11/25 02:54:51;;;;;;;9.50;3.50;;;;;;;0.34;100.00;98624.64;223654;1269;138691;-88
2023/11/25 03:01:01;;;;;;;7.30;3.10;;;;;;;0.32;100.00;98631.55;223198;1266;139103;-87
2023/11/25 03:06:54;;;;;;;8.30;3.30;;;;;;;0.30;100.00;98638.29;223191;1265;139402;-87
2023/11/25 03:12:47;;;;;;;;;;;;;;;;;;;;;
2023/11/25 03:18:47;;;;;;;9.50;3.10;;;;;;;0.32;100.00;98652.78;223217;1265;139361;-87
2023/11/25 03:24:48;;;;;;;8.30;2.70;;;;;;;0.34;100.00;98654.70;223675;1266;139079;-87
2023/11/25 03:30:40;;;;;;;10.60;3.10;;;;;;;0.36;100.00;98661.48;223103;1266;139007;-87
2023/11/25 03:36:38;;;;;;;;;;;;;;;;;;;;;
2023/11/25 03:42:40;;;;;;;8.00;2.70;;;;;;;0.33;100.00;98675.39;223794;1266;138724;-87
2023/11/25 03:48:33;;;;;;;;;;;;;;;;;;;;;
2023/11/25 04:00:43;;;;;;;8.30;2.90;;;;;;;0.38;100.00;98685.88;223161;1265;139300;-86
2023/11/25 04:06:45;;;;;;;10.00;2.80;;;;;;;0.41;100.00;98697.53;223106;1265;139135;-86
2023/11/25 04:12:46;;;;;;;8.40;2.70;;;;;;;0.44;100.00;98703.02;223790;1267;138700;-87
2023/11/25 04:18:47;;;;;;;7.40;2.60;;;;;;;0.47;100.00;98705.26;223150;1266;139219;-86
2023/11/25 04:24:47;;;;;;;;;;;;;;;;;;;;;
2023/11/25 04:30:49;;;;;;;8.70;2.60;;;;;;;0.53;100.00;98717.45;223226;1265;138996;-87
2023/11/25 04:36:50;;;;;;;7.90;2.70;;;;;;;0.55;100.00;98724.77;223115;1265;139592;-87
2023/11/25 04:42:51;;;;;;;9.20;2.80;;;;;;;0.59;100.00;98728.02;223729;1265;139247;-86
2023/11/25 04:48:52;;;;;;;6.90;2.80;;;;;;;0.62;100.00;98736.44;223217;1267;139302;-86
2023/11/25 04:54:46;;;;;;;;;;;;;;;;;;;;;
2023/11/25 05:00:54;;;;;;;7.90;2.60;;;;;;;0.69;100.00;98748.92;223176;1266;138981;-87
2023/11/25 05:06:55;;;;;;;6.40;2.60;;;;;;;0.72;100.00;98755.65;223165;1269;139523;-86
2023/11/25 05:12:56;;;;;;;9.70;3.40;;;;;;;0.75;100.00;98768.98;223644;1267;139027;-86
2023/11/25 05:18:57;;;;;;;11.30;3.80;;;;;;;0.77;100.00;98780.42;223092;1266;138608;-86
2023/11/25 05:24:59;;;;;;;9.30;3.80;;;;;;;0.79;100.00;98794.00;223835;1267;139199;-86
2023/11/25 05:30:43;;;;;;;10.40;3.90;;;;;;;0.81;100.00;98807.28;223234;1265;139356;-86
2023/11/25 05:36:44;;;;;;;10.40;4.00;;;;;;;0.84;100.00;98824.06;223337;1265;139620;-86
2023/11/25 05:42:47;;;;;;;8.30;3.20;;;;;;;0.85;100.00;98839.87;223748;1267;138234;-85
2023/11/25 05:48:39;;;;;;;9.00;3.40;;;;;;;0.86;100.00;98847.15;223234;1267;138407;-86
2023/11/25 05:54:42;;;;;;;9.20;2.90;;;;;;;0.88;100.00;98848.59;223699;1266;138536;-85
2023/11/25 06:00:42;;;;;;;7.90;2.50;;;;;;;0.88;100.00;98850.08;223293;1266;139260;-85
2023/11/25 06:06:41;;;;;;;;;;;;;;;;;;;;;
2023/11/25 06:12:32;;;;;;;6.20;2.50;;;;;;;0.88;100.00;98870.56;223764;1265;138680;-85
2023/11/25 06:18:24;;;;;;;6.70;2.90;;;;;;;0.88;100.00;98880.48;223338;1266;139731;-85
2023/11/25 06:24:15;;;;;;;;;;;;;;;;;;;;;
2023/11/25 06:30:16;;;;;;;7.60;3.10;;;;;;;0.83;100.00;98893.59;223267;1267;139320;-84
2023/11/25 06:35:49;;;;;;;;;;;;;;;;;;;;;
2023/11/25 06:41:53;;;;;;;7.40;3.10;;;;;;;0.84;100.00;98908.79;223776;1265;138452;-84
2023/11/25 06:47:54;;;;;;;6.40;2.90;;;;;;;0.86;100.00;98919.12;223267;1265;139148;-84
2023/11/25 06:53:26;;;;;;;6.40;2.70;;;;;;;0.88;100.00;98930.84;223712;1265;138330;-84
2023/11/25 06:59:30;;;;;;;6.80;3.10;;;;;;;0.91;100.00;98941.97;223403;1265;139112;-84
2023/11/25 07:05:20;;;;;;;;;;;;;;;;;;;;;
2023/11/25 07:11:16;;;;;;;;;;;;;;;;;;;;;
2023/11/25 07:17:16;;;;;;;4.60;2.00;;;;;;;0.98;100.00;98963.35;223332;1265;139324;-85
2023/11/25 07:23:00;;;;;;;6.70;2.50;;;;;;;1.00;100.00;98964.27;223869;1265;105017;-85
2023/11/25 07:29:04;;;;;;;5.90;2.00;;;;;;;1.03;100.00;98967.66;223145;1265;139368;-85
2023/11/25 07:35:06;;;;;;;6.50;2.20;;;;;;;1.05;100.00;98968.80;223745;1265;138850;-84
2023/11/25 07:40:54;;;;;;;5.60;2.30;;;;;;;1.08;100.00;98967.18;223233;1265;139227;-84
2023/11/25 07:46:48;;;;;;;6.00;2.10;;;;;;;1.10;100.00;98978.54;223296;1265;139472;-84
2023/11/25 07:52:49;;;;;;;6.10;2.10;;;;;;;1.14;100.00;98977.54;223817;1265;139071;-84
2023/11/25 07:58:50;;;;;;;7.30;2.40;;;;;;;1.18;100.00;98983.53;223311;1265;139370;-84
2023/11/25 08:04:27;;;;;;;10.10;2.40;;;;;;;1.22;100.00;98985.96;223784;1267;139235;-84
2023/11/25 08:10:21;;;;;;;;;;;;;;;;;;;;;
2023/11/25 08:16:21;;;;;;;;;;;;;;;;;;;;;
2023/11/25 08:22:16;;;;;;;4.40;1.90;;;;;;;1.36;100.00;99012.85;223865;1265;139213;-85
2023/11/25 08:28:16;;;;;;;7.20;2.30;;;;;;;1.40;100.00;99014.73;223302;1265;139697;-84
2023/11/25 08:34:17;;;;;;;7.30;1.90;;;;;;;1.46;100.00;99024.23;223801;1265;139033;-86
2023/11/25 08:40:03;;;;;;;7.60;2.20;;;;;;;1.46;100.00;99034.01;223121;1265;139394;-85
2023/11/25 08:46:03;;;;;;;6.70;2.40;;;;;;;1.51;100.00;99043.27;223856;1265;138892;-85
2023/11/25 08:52:04;;;;;;;5.00;2.20;;;;;;;1.56;100.00;99051.07;223798;1265;137176;-84
2023/11/25 08:58:07;;;;;;;7.50;2.40;;;;;;;1.62;100.00;99055.54;223277;1265;139177;-85
2023/11/25 09:04:06;;;;;;;7.80;2.60;;;;;;;1.67;100.00;99061.23;223841;1265;138903;-84
2023/11/25 09:10:04;;;;;;;7.70;2.30;;;;;;;1.74;100.00;99067.61;223185;1266;139176;-84
2023/11/25 09:15:53;;;;;;;;;;;;;;;;;;;;;
2023/11/25 09:22:00;;;;;;;;;;;;;;;;;;;;;
2023/11/25 09:27:54;;;;;;;5.60;2.10;;;;;;;1.72;100.00;99086.30;223110;1265;140074;-85
2023/11/25 09:33:56;;;;;;;6.60;2.10;;;;;;;1.65;100.00;99083.29;223789;1265;138481;-86
2023/11/25 09:39:54;;;;;;;8.10;2.70;;;;;;;1.61;100.00;99083.70;219394;1265;5391866;-86
2023/11/25 09:45:55;;;;;;;9.10;3.30;;;;;;;1.57;100.00;99086.88;223867;1265;139695;-84
2023/11/25 09:51:56;;;;;;;7.30;2.60;;;;;;;1.56;100.00;99091.95;223714;1265;138933;-84
2023/11/25 09:57:46;;;;;;;;;;;;;;;;;;;;;
2023/11/25 10:03:45;;;;;;;9.60;3.30;;;;;;;1.50;100.00;99085.77;223803;1265;139074;-85
2023/11/25 10:09:43;;;;;;;;;;;;;;;;;;;;;
2023/11/25 10:15:27;;;;;;;;;;;;;;;;;;;;;
2023/11/25 10:21:05;;;;;;;9.40;2.90;;;;;;;1.38;100.00;99088.23;223535;1265;221028;-85
2023/11/25 10:27:03;;;;;;;7.70;2.60;;;;;;;1.38;100.00;99093.73;223308;1265;139741;-85
2023/11/25 10:32:56;;;;;;;;;;;;;;;;;;;;;
2023/11/25 10:38:59;;;;;;;11.60;3.30;;;;;;;1.36;100.00;99082.45;223118;1265;139423;-84
2023/11/25 10:45:13;;;;;;;8.70;3.00;;;;;;;1.35;100.00;99088.17;223824;1265;139097;-84
2023/11/25 10:57:03;;;;;;;8.10;3.60;;;;;;;1.44;100.00;99080.58;223228;1265;139340;-85
2023/11/25 11:03:03;;;;;;;8.20;3.00;;;;;;;1.49;100.00;99083.42;223641;1265;138560;-84
2023/11/25 11:09:03;;;;;;;11.90;3.50;;;;;;;1.56;100.00;99078.19;223053;1265;139685;-85
2023/11/25 11:15:10;;;;;;;9.30;3.60;;;;;;;1.64;100.00;99075.98;223698;1265;138753;-85
2023/11/25 11:21:10;;;;;;;8.90;3.50;;;;;;;1.72;100.00;99081.97;223251;1265;139212;-85
2023/11/25 11:27:14;;;;;;;7.50;2.50;;;;;;;1.82;100.00;99074.39;223264;1266;139259;-85
2023/11/25 11:33:15;;;;;;;7.90;3.00;;;;;;;1.89;100.00;99073.53;223769;1265;138484;-86
2023/11/25 11:39:28;;;;;;;7.70;3.00;;;;;;;1.93;100.00;99080.52;223280;1265;139312;-86
2023/11/25 11:51:49;;;;;;;11.10;3.70;;;;;;;2.03;100.00;99081.33;223441;1265;365463;-85
2023/11/25 11:57:59;;;;;;;7.90;4.00;;;;;;;2.08;100.00;99084.29;223339;1265;139383;-86
2023/11/25 12:03:56;;;;;;;;;;;;;;;;;;;;;
2023/11/25 12:09:37;;;;;;;;;;;;;;;2.00;100.00;99074.25;223314;1265;139103;-85
2023/11/25 12:15:38;;;;;;;11.50;4.50;;;;;;;1.93;100.00;99070.00;224019;1265;124793;-84
2023/11/25 12:21:20;;;;;;;9.80;4.00;;;;;;;1.89;100.00;99065.63;223768;1265;138896;-84
2023/11/25 12:27:21;;;;;;;10.50;4.60;;;;;;;1.87;100.00;99063.81;223212;1265;139275;-85
2023/11/25 12:33:12;;;;;;;13.80;6.40;;;;;;;1.86;100.00;99065.20;223806;1265;138689;-84
2023/11/25 12:39:12;;;;;;;17.40;10.40;;;;;;;1.84;100.00;99069.94;223313;1265;139817;-85
2023/11/25 12:45:28;;;;;;;15.60;5.70;;;;;;;1.84;100.00;99071.64;223770;1265;138933;-84
2023/11/25 12:51:29;;;;;;;14.60;5.60;;;;;;;1.85;100.00;99064.54;223067;1265;138782;-84
2023/11/25 12:57:19;;;;;;;24.10;8.80;;;;;;;1.85;100.00;99059.51;223305;1265;138573;-83
2023/11/25 13:03:12;;;;;;;14.60;5.20;;;;;;;1.89;100.00;99060.53;223840;1266;139518;-84
2023/11/25 13:09:22;;;;;;;10.00;4.60;;;;;;;1.93;100.00;99065.81;223356;1265;139905;-84
2023/11/25 13:15:19;;;;;;;;;;;;;;;;;;;;;
2023/11/25 13:21:15;;;;;;;12.10;4.20;;;;;;;1.99;100.00;99079.98;223283;1265;140661;-83
2023/11/25 13:33:15;;;;;;;;;;;;;;;;;;;;;
2023/11/25 13:38:56;;;;;;;12.70;4.00;;;;;;;2.09;100.00;99085.79;223170;1265;139085;-85
2023/11/25 13:44:57;;;;;;;9.70;3.80;;;;;;;2.10;100.00;99083.18;223841;1265;138694;-85
2023/11/25 13:50:58;;;;;;;12.10;4.10;;;;;;;2.13;100.00;99088.83;223251;1265;139115;-85
2023/11/25 13:57:00;;;;;;;13.90;4.00;;;;;;;2.12;100.00;99092.06;223486;1265;138744;-85
2023/11/25 14:03:00;;;;;;;9.50;3.60;;;;;;;2.11;100.00;99091.05;223805;1265;138799;-85
2023/11/25 14:15:00;;;;;;;;;;;;;;;;;;;;;
2023/11/25 14:21:02;;;;;;;15.00;4.40;;;;;;;2.13;100.00;99096.66;223178;1265;139544;-85
2023/11/25 14:26:45;;;;;;;20.90;5.70;;;;;;;2.11;100.00;99097.15;223241;1265;139719;-85
2023/11/25 14:32:36;;;;;;;11.80;5.00;;;;;;;2.05;100.00;99101.06;223782;1266;138627;-84
2023/11/25 14:37:58;;;;;;;;;;;;;;;;;;;;;
2023/11/25 14:43:56;;;;;;;16.20;6.30;;;;;;;1.96;100.00;99095.42;223755;1265;139211;-84
2023/11/25 14:49:58;;;;;;;14.20;6.20;;;;;;;1.92;100.00;99091.61;223372;1265;139383;-83
2023/11/25 14:56:00;;;;;;;19.40;7.50;;;;;;;1.93;100.00;99100.61;223667;1265;139241;-84
2023/11/25 15:07:43;;;;;;;17.00;8.00;;;;;;;1.86;100.00;99108.11;223124;1265;140100;-83
2023/11/25 15:14:07;;;;;;;18.90;9.80;;;;;;;1.82;100.00;99108.65;223863;1265;138950;-83
2023/11/25 15:19:49;;;;;;;20.20;11.20;;;;;;;1.79;100.00;99108.56;223110;1265;139685;-83
2023/11/25 15:25:31;;;;;;;;;;;;;;;;;;;;;
2023/11/25 15:31:34;;;;;;;18.10;9.10;;;;;;;1.68;100.00;99118.52;223626;1265;138624;-85
2023/11/25 15:37:35;;;;;;;20.10;9.70;;;;;;;1.62;100.00;99119.77;223203;1265;139625;-86
2023/11/25 15:43:37;;;;;;;18.00;8.70;;;;;;;1.58;100.00;99121.67;223806;1265;139259;-86
2023/11/25 15:49:30;;;;;;;;;;;;;;;;;;;;;
2023/11/25 15:55:40;;;;;;;21.30;12.30;;;;;;;1.53;100.00;99123.17;223762;1265;138969;-86
2023/11/25 16:01:41;;;;;;;26.00;13.10;;;;;;;1.47;100.00;99127.96;223671;1266;138963;-86
2023/11/25 16:07:42;;;;;;;24.30;12.90;;;;;;;1.43;100.00;99127.33;223242;1265;139645;-85
2023/11/25 16:13:43;;;;;;;21.30;11.30;;;;;;;1.39;100.00;99130.79;223781;1266;138779;-85
2023/11/25 16:19:44;;;;;;;19.90;9.10;;;;;;;1.36;100.00;99133.09;223337;1266;139452;-83
2023/11/25 16:25:46;;;;;;;19.60;11.40;;;;;;;1.36;100.00;99132.80;223691;1266;138773;-81
2023/11/25 16:31:47;;;;;;;22.70;10.60;;;;;;;1.37;100.00;99138.08;223802;1266;138825;-81
2023/11/25 16:37:46;;;;;;;;;;;;;;;;;;;;;
2023/11/25 16:43:47;;;;;;;22.40;11.20;;;;;;;1.37;100.00;99155.05;223816;1266;139368;-80
2023/11/25 16:49:49;;;;;;;20.80;11.50;;;;;;;1.36;100.00;99156.73;223150;1266;139574;-80
2023/11/25 16:55:36;;;;;;;19.50;10.90;;;;;;;1.37;100.00;99159.38;223673;1266;139365;-80
2023/11/25 17:01:30;;;;;;;20.40;9.90;;;;;;;1.38;100.00;99160.10;223679;1266;138782;-80
2023/11/25 17:07:38;;;;;;;;;;;;;;;;;;;;;
2023/11/25 17:13:30;;;;;;;20.70;9.70;;;;;;;1.40;100.00;99162.79;223751;1265;138834;-80
2023/11/25 17:19:24;;;;;;;19.90;9.30;;;;;;;1.40;100.00;99167.51;223297;1266;139923;-80
2023/11/25 17:25:23;;;;;;;;;;;;;;;;;;;;;
2023/11/25 17:37:26;;;;;;;19.60;10.80;;;;;;;1.36;100.00;99193.09;223145;1266;139693;-81
2023/11/25 17:43:25;;;;;;;;;;;;;;;;;;;;;
2023/11/25 17:49:28;;;;;;;18.50;8.80;;;;;;;1.35;100.00;99206.17;223232;1265;139871;-81
2023/11/25 17:55:10;;;;;;;;;;;;;;;;;;;;;
2023/11/25 18:07:13;;;;;;;17.30;7.50;;;;;;;1.33;100.00;99201.25;223216;1266;139263;-81
2023/11/25 18:19:15;;;;;;;20.00;9.20;;;;;;;1.30;100.00;99216.64;223199;1266;142236;-81
2023/11/25 18:31:16;;;;;;;37.40;18.50;;;;;;;1.27;100.00;99232.75;223136;1266;139283;-81
2023/11/25 18:37:12;;;;;;;29.40;14.90;;;;;;;1.25;100.00;99239.35;223205;1266;140105;-81
2023/11/25 18:43:12;;;;;;;27.80;15.70;;;;;;;1.24;100.00;99250.01;223665;1266;138834;-81
2023/11/25 18:49:05;;;;;;;;;;;;;;;;;;;;;
2023/11/25 18:55:09;;;;;;;25.10;14.80;;;;;;;1.21;100.00;99257.89;223752;1266;139254;-81
2023/11/25 19:01:04;;;;;;;;;;;;;;;;;;;;;
2023/11/25 19:06:55;;;;;;;;;;;;;;;;;;;;;
2023/11/25 19:18:58;;;;;;;23.50;10.70;;;;;;;1.22;100.00;99291.36;223127;1266;139615;-81
2023/11/25 19:24:59;;;;;;;23.60;10.10;;;;;;;1.21;100.00;99300.91;223693;1266;139184;-81
2023/11/25 19:31:01;;;;;;;21.90;11.70;;;;;;;1.21;100.00;99306.59;223093;1266;139759;-81
2023/11/25 19:37:02;;;;;;;20.30;9.50;;;;;;;1.20;100.00;99304.48;223286;1266;139820;-81
2023/11/25 19:42:55;;;;;;;19.00;10.30;;;;;;;1.18;100.00;99308.13;223653;1266;138833;-81
2023/11/25 19:48:48;;;;;;;;;;;;;;;;;;;;;
2023/11/25 19:54:50;;;;;;;20.50;11.00;;;;;;;1.17;100.00;99326.73;223824;1265;138826;-80
2023/11/25 20:00:51;;;;;;;19.10;10.30;;;;;;;1.17;100.00;99330.39;223222;1266;139534;-81
2023/11/25 20:06:44;;;;;;;;;;;;;;;;;;;;;
2023/11/25 20:12:46;;;;;;;22.40;11.60;;;;;;;1.18;100.00;99346.04;223654;1266;139090;-81
2023/11/25 20:18:48;;;;;;;20.10;10.10;;;;;;;1.17;100.00;99346.98;223116;1266;139717;-81
2023/11/25 20:24:49;;;;;;;19.90;9.90;;;;;;;1.18;100.00;99347.98;223797;1266;138977;-81
2023/11/25 20:30:48;;;;;;;;;;;;;;;;;;;;;
2023/11/25 20:36:50;;;;;;;21.10;8.00;;;;;;;1.17;100.00;99357.77;223274;1269;139817;-80
2023/11/25 20:42:51;;;;;;;19.60;9.60;;;;;;;1.15;100.00;99365.33;223806;1269;139162;-80
2023/11/25 20:48:52;;;;;;;19.00;8.60;;;;;;;1.13;100.00;99369.73;223318;1265;139398;-80
2023/11/25 20:54:54;;;;;;;18.10;9.60;;;;;;;1.13;100.00;99381.11;223804;1267;138747;-82
2023/11/25 21:00:54;;;;;;;18.60;8.00;;;;;;;1.13;100.00;99384.90;223236;1265;139317;-81
2023/11/25 21:06:39;;;;;;;;;;;;;;;;;;;;;
2023/11/25 21:12:39;;;;;;;;;;;;;;;;;;;;;
2023/11/25 21:18:40;;;;;;;18.00;7.30;;;;;;;1.07;100.00;99406.55;223247;1265;139693;-81
2023/11/25 21:24:42;;;;;;;19.30;7.10;;;;;;;1.02;100.00;99411.63;223700;1267;138578;-80
2023/11/25 21:30:43;;;;;;;15.80;7.30;;;;;;;0.99;100.00;99424.92;223222;1266;139339;-80
2023/11/25 21:36:34;;;;;;;;;;;;;;;;;;;;;
2023/11/25 21:42:46;;;;;;;7.40;2.40;;;;;;;0.85;100.00;99449.54;219682;1268;5371150;-81
2023/11/25 21:48:46;;;;;;;7.70;3.10;;;;;;;0.77;100.00;99451.14;223275;1267;139636;-81
2023/11/25 21:54:48;;;;;;;9.00;3.00;;;;;;;0.76;100.00;99448.94;223688;1266;138482;-80
2023/11/25 22:00:49;;;;;;;7.40;2.40;;;;;;;0.78;100.00;99449.02;223149;1267;139461;-80
2023/11/25 22:06:50;;;;;;;6.40;2.60;;;;;;;0.78;100.00;99450.41;223238;1266;140182;-81
2023/11/25 22:12:51;;;;;;;8.30;2.60;;;;;;;0.76;100.00;99446.36;223657;1265;138610;-81
2023/11/25 22:18:58;;;;;;;9.10;3.10;;;;;;;0.71;100.00;99451.23;223190;1267;139413;-80
2023/11/25 22:25:26;;;;;;;11.00;3.50;;;;;;;0.70;100.00;99456.41;223828;1267;138508;-81
2023/11/25 22:30:59;;;;;;;6.60;2.90;;;;;;;0.66;100.00;99466.47;223406;1267;138836;-81
2023/11/25 22:36:46;;;;;;;13.90;3.20;;;;;;;0.64;100.00;99476.22;223190;1265;139176;-81
2023/11/25 22:48:50;;;;;;;9.40;4.00;;;;;;;0.65;100.00;99488.00;223272;1265;139684;-82
2023/11/25 22:54:47;;;;;;;9.40;3.50;;;;;;;0.66;100.00;99494.61;223785;1265;138558;-81
2023/11/25 23:00:41;;;;;;;;;;;;;;;0.69;100.00;99494.95;223283;1267;139284;-82
2023/11/25 23:06:15;;;;;;;16.70;5.30;;;;;;;0.68;100.00;99499.01;223312;1266;126154;-82
2023/11/25 23:12:16;;;;;;;11.20;4.90;;;;;;;0.66;100.00;99492.08;223699;1265;138778;-82
2023/11/25 23:18:19;;;;;;;7.60;3.10;;;;;;;0.65;100.00;99498.69;223278;1265;139677;-81
2023/11/25 23:24:18;;;;;;;8.70;3.60;;;;;;;0.62;100.00;99505.32;223821;1265;139074;-82
2023/11/25 23:30:20;;;;;;;8.30;3.20;;;;;;;0.62;100.00;99503.76;223200;1265;139483;-82
2023/11/25 23:36:22;;;;;;;7.40;2.70;;;;;;;0.62;100.00;99507.54;223725;1265;138819;-82
2023/11/25 23:42:23;;;;;;;9.40;3.50;;;;;;;0.61;100.00;99515.00;223812;1266;138859;-82
2023/11/25 23:48:16;;;;;;;;;;;;;;;;;;;;;
2023/11/25 23:54:10;;;;;;;8.80;3.80;;;;;;;0.60;100.00;99517.40;223712;1265;138815;-82
